sensor_id;sensor_type;location;lat;lon;timestamp;P1;durP1;ratioP1;P2;durP2;ratioP2
4595;SDS011;2310;49.978;8.742;2022-09-12T00:01:41;17.67;;;15.53;;
4595;SDS011;2310;49.978;8.742;2022-09-12T00:05:43;16.27;;;13.50;;
4595;SDS011;2310;49.978;8.742;2022-09-12T00:09:45;17.40;;;14.33;;
4595;SDS011;2310;49.978;8.742;2022-09-12T00:13:46;19.23;;;14.67;;
4595;SDS011;2310;49.978;8.742;2022-09-12T00:17:48;13.73;;;12.30;;
4595;SDS011;2310;49.978;8.742;2022-09-12T00:21:49;16.63;;;14.57;;
4595;SDS011;2310;49.978;8.742;2022-09-12T00:25:50;18.67;;;15.17;;
4595;SDS011;2310;49.978;8.742;2022-09-12T00:29:51;15.97;;;14.27;;
4595;SDS011;2310;49.978;8.742;2022-09-12T00:33:55;15.80;;;13.60;;
4595;SDS011;2310;49.978;8.742;2022-09-12T00:37:57;17.50;;;14.63;;
4595;SDS011;2310;49.978;8.742;2022-09-12T00:41:58;17.40;;;15.60;;
4595;SDS011;2310;49.978;8.742;2022-09-12T00:46:01;17.37;;;14.03;;
4595;SDS011;2310;49.978;8.742;2022-09-12T00:54:09;17.93;;;15.53;;
4595;SDS011;2310;49.978;8.742;2022-09-12T00:58:21;18.17;;;14.37;;
4595;SDS011;2310;49.978;8.742;2022-09-12T01:02:24;16.50;;;14.73;;
4595;SDS011;2310;49.978;8.742;2022-09-12T01:06:27;13.93;;;12.33;;
4595;SDS011;2310;49.978;8.742;2022-09-12T01:10:33;19.10;;;16.73;;
4595;SDS011;2310;49.978;8.742;2022-09-12T01:14:35;26.10;;;17.47;;
4595;SDS011;2310;49.978;8.742;2022-09-12T01:23:27;18.73;;;15.63;;
4595;SDS011;2310;49.978;8.742;2022-09-12T01:32:00;21.57;;;17.03;;
4595;SDS011;2310;49.978;8.742;2022-09-12T01:36:05;17.50;;;15.60;;
4595;SDS011;2310;49.978;8.742;2022-09-12T01:40:30;20.10;;;17.63;;
4595;SDS011;2310;49.978;8.742;2022-09-12T01:48:59;24.13;;;18.23;;
4595;SDS011;2310;49.978;8.742;2022-09-12T01:57:30;34.67;;;18.80;;
4595;SDS011;2310;49.978;8.742;2022-09-12T02:05:59;22.73;;;16.90;;
4595;SDS011;2310;49.978;8.742;2022-09-12T02:10:07;23.93;;;17.07;;
4595;SDS011;2310;49.978;8.742;2022-09-12T02:14:37;19.00;;;16.33;;
4595;SDS011;2310;49.978;8.742;2022-09-12T02:18:37;19.00;;;16.00;;
4595;SDS011;2310;49.978;8.742;2022-09-12T02:22:41;21.00;;;17.17;;
4595;SDS011;2310;49.978;8.742;2022-09-12T02:26:46;17.13;;;15.17;;
4595;SDS011;2310;49.978;8.742;2022-09-12T02:30:56;18.27;;;15.70;;
4595;SDS011;2310;49.978;8.742;2022-09-12T02:35:02;19.80;;;16.13;;
4595;SDS011;2310;49.978;8.742;2022-09-12T02:39:07;20.17;;;14.70;;
4595;SDS011;2310;49.978;8.742;2022-09-12T02:43:09;17.03;;;14.57;;
4595;SDS011;2310;49.978;8.742;2022-09-12T02:47:13;19.70;;;15.30;;
4595;SDS011;2310;49.978;8.742;2022-09-12T02:51:34;21.83;;;15.30;;
4595;SDS011;2310;49.978;8.742;2022-09-12T02:55:35;15.90;;;13.40;;
4595;SDS011;2310;49.978;8.742;2022-09-12T02:59:38;18.13;;;14.47;;
4595;SDS011;2310;49.978;8.742;2022-09-12T03:08:10;16.93;;;13.30;;
4595;SDS011;2310;49.978;8.742;2022-09-12T03:12:28;14.53;;;12.27;;
4595;SDS011;2310;49.978;8.742;2022-09-12T03:16:49;14.17;;;12.70;;
4595;SDS011;2310;49.978;8.742;2022-09-12T03:25:03;15.80;;;13.00;;
4595;SDS011;2310;49.978;8.742;2022-09-12T03:29:06;16.10;;;13.80;;
4595;SDS011;2310;49.978;8.742;2022-09-12T03:33:15;16.17;;;13.47;;
4595;SDS011;2310;49.978;8.742;2022-09-12T03:37:18;14.80;;;11.73;;
4595;SDS011;2310;49.978;8.742;2022-09-12T03:41:19;15.60;;;13.97;;
4595;SDS011;2310;49.978;8.742;2022-09-12T03:45:21;24.43;;;15.67;;
4595;SDS011;2310;49.978;8.742;2022-09-12T03:49:22;16.70;;;14.03;;
4595;SDS011;2310;49.978;8.742;2022-09-12T03:53:23;16.50;;;14.57;;
4595;SDS011;2310;49.978;8.742;2022-09-12T03:57:25;20.30;;;14.30;;
4595;SDS011;2310;49.978;8.742;2022-09-12T04:01:26;17.03;;;13.43;;
4595;SDS011;2310;49.978;8.742;2022-09-12T04:05:27;14.17;;;12.67;;
4595;SDS011;2310;49.978;8.742;2022-09-12T04:09:29;16.40;;;13.73;;
4595;SDS011;2310;49.978;8.742;2022-09-12T04:13:30;18.30;;;15.20;;
4595;SDS011;2310;49.978;8.742;2022-09-12T04:17:31;14.40;;;12.60;;
4595;SDS011;2310;49.978;8.742;2022-09-12T04:21:33;21.37;;;12.93;;
4595;SDS011;2310;49.978;8.742;2022-09-12T04:25:34;16.90;;;13.87;;
4595;SDS011;2310;49.978;8.742;2022-09-12T04:29:35;17.63;;;14.60;;
4595;SDS011;2310;49.978;8.742;2022-09-12T04:33:37;14.50;;;13.00;;
4595;SDS011;2310;49.978;8.742;2022-09-12T04:37:38;15.43;;;12.83;;
4595;SDS011;2310;49.978;8.742;2022-09-12T04:41:39;19.57;;;16.10;;
4595;SDS011;2310;49.978;8.742;2022-09-12T04:45:43;40.50;;;19.73;;
4595;SDS011;2310;49.978;8.742;2022-09-12T04:49:44;43.67;;;19.70;;
4595;SDS011;2310;49.978;8.742;2022-09-12T04:53:50;63.60;;;19.33;;
4595;SDS011;2310;49.978;8.742;2022-09-12T04:57:52;42.90;;;18.70;;
4595;SDS011;2310;49.978;8.742;2022-09-12T05:01:53;43.03;;;16.87;;
4595;SDS011;2310;49.978;8.742;2022-09-12T05:05:55;32.93;;;18.53;;
4595;SDS011;2310;49.978;8.742;2022-09-12T05:09:57;21.40;;;16.40;;
4595;SDS011;2310;49.978;8.742;2022-09-12T05:13:58;19.73;;;16.50;;
4595;SDS011;2310;49.978;8.742;2022-09-12T05:18:00;17.87;;;15.97;;
4595;SDS011;2310;49.978;8.742;2022-09-12T05:22:01;17.03;;;15.20;;
4595;SDS011;2310;49.978;8.742;2022-09-12T05:26:03;18.60;;;15.67;;
4595;SDS011;2310;49.978;8.742;2022-09-12T05:30:05;15.70;;;14.10;;
4595;SDS011;2310;49.978;8.742;2022-09-12T05:34:08;16.83;;;14.33;;
4595;SDS011;2310;49.978;8.742;2022-09-12T05:38:09;16.33;;;14.57;;
4595;SDS011;2310;49.978;8.742;2022-09-12T05:42:11;15.80;;;14.20;;
4595;SDS011;2310;49.978;8.742;2022-09-12T05:46:13;17.13;;;14.90;;
4595;SDS011;2310;49.978;8.742;2022-09-12T05:50:15;15.63;;;13.63;;
4595;SDS011;2310;49.978;8.742;2022-09-12T05:54:17;15.93;;;14.30;;
4595;SDS011;2310;49.978;8.742;2022-09-12T05:58:20;14.73;;;12.93;;
4595;SDS011;2310;49.978;8.742;2022-09-12T06:02:22;14.40;;;12.40;;
4595;SDS011;2310;49.978;8.742;2022-09-12T06:06:23;14.10;;;12.23;;
4595;SDS011;2310;49.978;8.742;2022-09-12T06:10:25;11.03;;;9.93;;
4595;SDS011;2310;49.978;8.742;2022-09-12T06:14:26;14.63;;;13.13;;
4595;SDS011;2310;49.978;8.742;2022-09-12T06:18:28;12.33;;;11.13;;
4595;SDS011;2310;49.978;8.742;2022-09-12T06:22:29;11.97;;;10.80;;
4595;SDS011;2310;49.978;8.742;2022-09-12T06:26:31;14.43;;;12.43;;
4595;SDS011;2310;49.978;8.742;2022-09-12T06:30:33;15.83;;;14.07;;
4595;SDS011;2310;49.978;8.742;2022-09-12T06:34:34;13.57;;;12.13;;
4595;SDS011;2310;49.978;8.742;2022-09-12T06:38:36;16.17;;;14.33;;
4595;SDS011;2310;49.978;8.742;2022-09-12T06:42:38;16.77;;;14.00;;
4595;SDS011;2310;49.978;8.742;2022-09-12T06:46:39;17.77;;;15.87;;
4595;SDS011;2310;49.978;8.742;2022-09-12T06:50:40;18.57;;;15.23;;
4595;SDS011;2310;49.978;8.742;2022-09-12T06:54:41;15.10;;;13.50;;
4595;SDS011;2310;49.978;8.742;2022-09-12T06:58:43;16.77;;;15.07;;
4595;SDS011;2310;49.978;8.742;2022-09-12T07:02:44;17.67;;;15.87;;
4595;SDS011;2310;49.978;8.742;2022-09-12T07:06:46;17.20;;;15.40;;
4595;SDS011;2310;49.978;8.742;2022-09-12T07:10:47;17.10;;;15.30;;
4595;SDS011;2310;49.978;8.742;2022-09-12T07:14:49;19.93;;;16.03;;
4595;SDS011;2310;49.978;8.742;2022-09-12T07:18:51;14.90;;;13.30;;
4595;SDS011;2310;49.978;8.742;2022-09-12T07:22:53;14.57;;;13.07;;
4595;SDS011;2310;49.978;8.742;2022-09-12T07:26:54;12.70;;;11.27;;
4595;SDS011;2310;49.978;8.742;2022-09-12T07:30:56;15.83;;;14.20;;
4595;SDS011;2310;49.978;8.742;2022-09-12T07:34:58;16.33;;;13.13;;
4595;SDS011;2310;49.978;8.742;2022-09-12T07:38:59;17.03;;;14.63;;
4595;SDS011;2310;49.978;8.742;2022-09-12T07:43:01;17.27;;;15.47;;
4595;SDS011;2310;49.978;8.742;2022-09-12T07:47:02;15.50;;;13.90;;
4595;SDS011;2310;49.978;8.742;2022-09-12T07:51:04;17.07;;;15.37;;
4595;SDS011;2310;49.978;8.742;2022-09-12T07:55:07;16.43;;;14.50;;
4595;SDS011;2310;49.978;8.742;2022-09-12T07:59:09;14.30;;;12.80;;
4595;SDS011;2310;49.978;8.742;2022-09-12T08:03:10;15.00;;;13.50;;
4595;SDS011;2310;49.978;8.742;2022-09-12T08:07:11;15.10;;;13.40;;
4595;SDS011;2310;49.978;8.742;2022-09-12T08:11:14;14.90;;;13.30;;
4595;SDS011;2310;49.978;8.742;2022-09-12T08:15:17;13.40;;;12.10;;
4595;SDS011;2310;49.978;8.742;2022-09-12T08:19:20;14.27;;;12.87;;
4595;SDS011;2310;49.978;8.742;2022-09-12T08:23:22;14.07;;;12.67;;
4595;SDS011;2310;49.978;8.742;2022-09-12T08:27:24;12.00;;;10.80;;
4595;SDS011;2310;49.978;8.742;2022-09-12T08:31:26;13.03;;;11.73;;
4595;SDS011;2310;49.978;8.742;2022-09-12T08:35:28;12.27;;;11.10;;
4595;SDS011;2310;49.978;8.742;2022-09-12T08:39:29;10.93;;;9.80;;
4595;SDS011;2310;49.978;8.742;2022-09-12T08:43:37;10.67;;;9.60;;
4595;SDS011;2310;49.978;8.742;2022-09-12T08:47:38;27.30;;;24.80;;
4595;SDS011;2310;49.978;8.742;2022-09-12T08:51:41;12.03;;;10.93;;
4595;SDS011;2310;49.978;8.742;2022-09-12T08:55:43;11.00;;;10.00;;
4595;SDS011;2310;49.978;8.742;2022-09-12T08:59:46;11.77;;;10.57;;
4595;SDS011;2310;49.978;8.742;2022-09-12T09:03:58;10.97;;;9.90;;
4595;SDS011;2310;49.978;8.742;2022-09-12T09:08:09;10.80;;;9.20;;
4595;SDS011;2310;49.978;8.742;2022-09-12T09:16:54;9.90;;;8.50;;
4595;SDS011;2310;49.978;8.742;2022-09-12T09:21:16;11.03;;;10.10;;
4595;SDS011;2310;49.978;8.742;2022-09-12T09:25:20;9.80;;;8.90;;
4595;SDS011;2310;49.978;8.742;2022-09-12T09:29:29;9.70;;;8.73;;
4595;SDS011;2310;49.978;8.742;2022-09-12T09:33:35;9.90;;;8.90;;
4595;SDS011;2310;49.978;8.742;2022-09-12T09:37:51;10.50;;;9.50;;
4595;SDS011;2310;49.978;8.742;2022-09-12T09:41:49;10.17;;;9.17;;
4595;SDS011;2310;49.978;8.742;2022-09-12T09:45:53;9.40;;;8.40;;
4595;SDS011;2310;49.978;8.742;2022-09-12T09:49:56;9.50;;;7.83;;
4595;SDS011;2310;49.978;8.742;2022-09-12T09:53:59;9.83;;;8.50;;
4595;SDS011;2310;49.978;8.742;2022-09-12T09:58:05;8.50;;;7.70;;
4595;SDS011;2310;49.978;8.742;2022-09-12T10:06:28;8.20;;;7.50;;
4595;SDS011;2310;49.978;8.742;2022-09-12T10:10:32;8.83;;;7.90;;
4595;SDS011;2310;49.978;8.742;2022-09-12T10:14:37;10.67;;;9.67;;
4595;SDS011;2310;49.978;8.742;2022-09-12T10:18:40;11.40;;;8.50;;
4595;SDS011;2310;49.978;8.742;2022-09-12T10:22:45;9.20;;;8.30;;
4595;SDS011;2310;49.978;8.742;2022-09-12T10:26:48;7.73;;;7.03;;
4595;SDS011;2310;49.978;8.742;2022-09-12T10:30:53;7.00;;;6.40;;
4595;SDS011;2310;49.978;8.742;2022-09-12T10:34:58;6.47;;;5.87;;
4595;SDS011;2310;49.978;8.742;2022-09-12T10:39:01;7.60;;;6.90;;
4595;SDS011;2310;49.978;8.742;2022-09-12T10:43:15;8.47;;;7.43;;
4595;SDS011;2310;49.978;8.742;2022-09-12T10:47:24;6.80;;;6.20;;
4595;SDS011;2310;49.978;8.742;2022-09-12T10:51:29;7.00;;;6.40;;
4595;SDS011;2310;49.978;8.742;2022-09-12T10:55:31;7.50;;;6.80;;
4595;SDS011;2310;49.978;8.742;2022-09-12T10:59:39;23.23;;;21.07;;
4595;SDS011;2310;49.978;8.742;2022-09-12T11:03:45;7.60;;;6.77;;
4595;SDS011;2310;49.978;8.742;2022-09-12T11:07:49;7.10;;;6.40;;
4595;SDS011;2310;49.978;8.742;2022-09-12T11:12:01;7.67;;;6.97;;
4595;SDS011;2310;49.978;8.742;2022-09-12T11:16:22;7.47;;;6.77;;
4595;SDS011;2310;49.978;8.742;2022-09-12T11:29:46;7.03;;;6.33;;
4595;SDS011;2310;49.978;8.742;2022-09-12T11:33:49;6.97;;;6.27;;
4595;SDS011;2310;49.978;8.742;2022-09-12T11:38:11;9.27;;;6.50;;
4595;SDS011;2310;49.978;8.742;2022-09-12T11:42:19;6.93;;;6.20;;
4595;SDS011;2310;49.978;8.742;2022-09-12T11:46:39;7.10;;;5.77;;
4595;SDS011;2310;49.978;8.742;2022-09-12T11:50:39;7.13;;;6.43;;
4595;SDS011;2310;49.978;8.742;2022-09-12T11:54:43;7.13;;;5.87;;
4595;SDS011;2310;49.978;8.742;2022-09-12T11:59:03;6.13;;;5.57;;
4595;SDS011;2310;49.978;8.742;2022-09-12T12:07:12;7.00;;;6.27;;
4595;SDS011;2310;49.978;8.742;2022-09-12T12:11:27;8.83;;;6.70;;
4595;SDS011;2310;49.978;8.742;2022-09-12T12:15:27;7.70;;;5.67;;
4595;SDS011;2310;49.978;8.742;2022-09-12T12:19:34;7.43;;;6.20;;
4595;SDS011;2310;49.978;8.742;2022-09-12T12:23:37;6.70;;;6.00;;
4595;SDS011;2310;49.978;8.742;2022-09-12T12:36:08;6.23;;;5.60;;
4595;SDS011;2310;49.978;8.742;2022-09-12T12:40:21;7.03;;;6.17;;
4595;SDS011;2310;49.978;8.742;2022-09-12T12:49:08;6.50;;;5.90;;
4595;SDS011;2310;49.978;8.742;2022-09-12T12:53:22;6.20;;;5.27;;
4595;SDS011;2310;49.978;8.742;2022-09-12T12:57:39;7.53;;;6.00;;
4595;SDS011;2310;49.978;8.742;2022-09-12T13:01:49;7.60;;;6.43;;
4595;SDS011;2310;49.978;8.742;2022-09-12T13:05:57;6.57;;;5.97;;
4595;SDS011;2310;49.978;8.742;2022-09-12T13:10:02;6.20;;;5.70;;
4595;SDS011;2310;49.978;8.742;2022-09-12T13:19:01;7.40;;;4.83;;
4595;SDS011;2310;49.978;8.742;2022-09-12T13:22:45;6.83;;;6.13;;
4595;SDS011;2310;49.978;8.742;2022-09-12T13:26:48;6.57;;;5.97;;
4595;SDS011;2310;49.978;8.742;2022-09-12T13:31:06;8.43;;;6.00;;
4595;SDS011;2310;49.978;8.742;2022-09-12T13:35:38;7.37;;;6.67;;
4595;SDS011;2310;49.978;8.742;2022-09-12T13:44:25;6.07;;;5.57;;
4595;SDS011;2310;49.978;8.742;2022-09-12T13:48:27;6.67;;;6.07;;
4595;SDS011;2310;49.978;8.742;2022-09-12T13:52:29;6.33;;;5.57;;
4595;SDS011;2310;49.978;8.742;2022-09-12T13:56:33;6.43;;;5.80;;
4595;SDS011;2310;49.978;8.742;2022-09-12T14:00:38;6.90;;;6.30;;
4595;SDS011;2310;49.978;8.742;2022-09-12T14:04:39;6.70;;;6.00;;
4595;SDS011;2310;49.978;8.742;2022-09-12T14:08:59;6.60;;;6.00;;
4595;SDS011;2310;49.978;8.742;2022-09-12T14:17:16;6.43;;;5.83;;
4595;SDS011;2310;49.978;8.742;2022-09-12T14:25:37;6.60;;;5.60;;
4595;SDS011;2310;49.978;8.742;2022-09-12T14:29:41;5.80;;;4.73;;
4595;SDS011;2310;49.978;8.742;2022-09-12T14:33:50;5.87;;;5.30;;
4595;SDS011;2310;49.978;8.742;2022-09-12T14:37:53;5.83;;;5.20;;
4595;SDS011;2310;49.978;8.742;2022-09-12T14:42:12;5.83;;;5.23;;
4595;SDS011;2310;49.978;8.742;2022-09-12T14:46:23;7.77;;;6.97;;
4595;SDS011;2310;49.978;8.742;2022-09-12T14:50:27;6.50;;;5.80;;
4595;SDS011;2310;49.978;8.742;2022-09-12T14:58:37;7.27;;;6.57;;
4595;SDS011;2310;49.978;8.742;2022-09-12T15:02:40;6.37;;;5.80;;
4595;SDS011;2310;49.978;8.742;2022-09-12T15:06:44;5.70;;;5.20;;
4595;SDS011;2310;49.978;8.742;2022-09-12T15:10:45;6.60;;;5.10;;
4595;SDS011;2310;49.978;8.742;2022-09-12T15:14:47;6.43;;;5.33;;
4595;SDS011;2310;49.978;8.742;2022-09-12T15:18:48;6.93;;;6.30;;
4595;SDS011;2310;49.978;8.742;2022-09-12T15:22:49;8.43;;;5.67;;
4595;SDS011;2310;49.978;8.742;2022-09-12T15:26:52;7.90;;;5.33;;
4595;SDS011;2310;49.978;8.742;2022-09-12T15:30:53;6.57;;;5.97;;
4595;SDS011;2310;49.978;8.742;2022-09-12T15:34:56;6.47;;;5.87;;
4595;SDS011;2310;49.978;8.742;2022-09-12T15:38:57;6.03;;;5.53;;
4595;SDS011;2310;49.978;8.742;2022-09-12T15:42:59;5.80;;;5.30;;
4595;SDS011;2310;49.978;8.742;2022-09-12T15:47:00;6.77;;;6.17;;
4595;SDS011;2310;49.978;8.742;2022-09-12T15:51:01;6.10;;;5.50;;
4595;SDS011;2310;49.978;8.742;2022-09-12T15:55:04;5.87;;;5.27;;
4595;SDS011;2310;49.978;8.742;2022-09-12T15:59:08;5.20;;;4.70;;
4595;SDS011;2310;49.978;8.742;2022-09-12T16:03:16;6.30;;;5.57;;
4595;SDS011;2310;49.978;8.742;2022-09-12T16:07:21;5.90;;;5.40;;
4595;SDS011;2310;49.978;8.742;2022-09-12T16:11:23;5.90;;;5.40;;
4595;SDS011;2310;49.978;8.742;2022-09-12T16:15:25;6.43;;;5.83;;
4595;SDS011;2310;49.978;8.742;2022-09-12T16:19:27;6.20;;;5.60;;
4595;SDS011;2310;49.978;8.742;2022-09-12T16:23:28;7.00;;;6.10;;
4595;SDS011;2310;49.978;8.742;2022-09-12T16:27:29;6.30;;;5.70;;
4595;SDS011;2310;49.978;8.742;2022-09-12T16:31:31;6.80;;;6.20;;
4595;SDS011;2310;49.978;8.742;2022-09-12T16:35:32;6.40;;;5.80;;
4595;SDS011;2310;49.978;8.742;2022-09-12T16:39:33;6.80;;;5.60;;
4595;SDS011;2310;49.978;8.742;2022-09-12T16:43:36;6.33;;;5.73;;
4595;SDS011;2310;49.978;8.742;2022-09-12T16:47:38;6.50;;;5.90;;
4595;SDS011;2310;49.978;8.742;2022-09-12T16:51:39;6.23;;;5.70;;
4595;SDS011;2310;49.978;8.742;2022-09-12T16:55:47;6.03;;;5.53;;
4595;SDS011;2310;49.978;8.742;2022-09-12T16:59:49;6.00;;;5.50;;
4595;SDS011;2310;49.978;8.742;2022-09-12T17:03:54;6.47;;;5.87;;
4595;SDS011;2310;49.978;8.742;2022-09-12T17:07:56;5.87;;;5.30;;
4595;SDS011;2310;49.978;8.742;2022-09-12T17:11:57;6.73;;;6.10;;
4595;SDS011;2310;49.978;8.742;2022-09-12T17:15:58;8.20;;;6.40;;
4595;SDS011;2310;49.978;8.742;2022-09-12T17:20:00;6.93;;;5.87;;
4595;SDS011;2310;49.978;8.742;2022-09-12T17:24:02;5.37;;;4.87;;
4595;SDS011;2310;49.978;8.742;2022-09-12T17:28:03;6.40;;;5.40;;
4595;SDS011;2310;49.978;8.742;2022-09-12T17:32:05;6.53;;;5.93;;
4595;SDS011;2310;49.978;8.742;2022-09-12T17:36:07;6.40;;;5.80;;
4595;SDS011;2310;49.978;8.742;2022-09-12T17:40:11;7.10;;;6.43;;
4595;SDS011;2310;49.978;8.742;2022-09-12T17:44:12;7.17;;;6.47;;
4595;SDS011;2310;49.978;8.742;2022-09-12T17:48:14;6.70;;;5.90;;
4595;SDS011;2310;49.978;8.742;2022-09-12T17:52:15;6.87;;;5.60;;
4595;SDS011;2310;49.978;8.742;2022-09-12T17:56:17;7.57;;;6.87;;
4595;SDS011;2310;49.978;8.742;2022-09-12T18:00:18;7.03;;;6.27;;
4595;SDS011;2310;49.978;8.742;2022-09-12T18:04:21;8.03;;;6.43;;
4595;SDS011;2310;49.978;8.742;2022-09-12T18:08:23;7.47;;;6.77;;
4595;SDS011;2310;49.978;8.742;2022-09-12T18:12:24;11.10;;;8.07;;
4595;SDS011;2310;49.978;8.742;2022-09-12T18:16:26;7.43;;;6.73;;
4595;SDS011;2310;49.978;8.742;2022-09-12T18:20:31;8.00;;;6.70;;
4595;SDS011;2310;49.978;8.742;2022-09-12T18:24:32;8.67;;;6.87;;
4595;SDS011;2310;49.978;8.742;2022-09-12T18:28:34;7.20;;;6.50;;
4595;SDS011;2310;49.978;8.742;2022-09-12T18:32:37;11.57;;;6.63;;
4595;SDS011;2310;49.978;8.742;2022-09-12T18:36:39;8.37;;;7.30;;
4595;SDS011;2310;49.978;8.742;2022-09-12T18:40:41;8.53;;;7.20;;
4595;SDS011;2310;49.978;8.742;2022-09-12T18:44:42;8.27;;;7.47;;
4595;SDS011;2310;49.978;8.742;2022-09-12T18:48:43;10.03;;;6.73;;
4595;SDS011;2310;49.978;8.742;2022-09-12T18:52:45;8.30;;;7.50;;
4595;SDS011;2310;49.978;8.742;2022-09-12T18:56:46;8.43;;;7.63;;
4595;SDS011;2310;49.978;8.742;2022-09-12T19:00:47;9.20;;;8.30;;
4595;SDS011;2310;49.978;8.742;2022-09-12T19:04:49;11.97;;;9.10;;
4595;SDS011;2310;49.978;8.742;2022-09-12T19:08:51;12.30;;;7.70;;
4595;SDS011;2310;49.978;8.742;2022-09-12T19:12:54;10.10;;;9.10;;
4595;SDS011;2310;49.978;8.742;2022-09-12T19:16:55;6.90;;;6.20;;
4595;SDS011;2310;49.978;8.742;2022-09-12T19:20:57;8.60;;;7.70;;
4595;SDS011;2310;49.978;8.742;2022-09-12T19:24:58;9.50;;;8.60;;
4595;SDS011;2310;49.978;8.742;2022-09-12T19:28:59;9.90;;;7.77;;
4595;SDS011;2310;49.978;8.742;2022-09-12T19:33:02;8.50;;;7.70;;
4595;SDS011;2310;49.978;8.742;2022-09-12T19:37:05;9.47;;;8.47;;
4595;SDS011;2310;49.978;8.742;2022-09-12T19:41:09;11.00;;;8.63;;
4595;SDS011;2310;49.978;8.742;2022-09-12T19:45:13;10.40;;;8.07;;
4595;SDS011;2310;49.978;8.742;2022-09-12T19:49:18;9.27;;;8.37;;
4595;SDS011;2310;49.978;8.742;2022-09-12T19:53:19;9.63;;;8.73;;
4595;SDS011;2310;49.978;8.742;2022-09-12T19:57:21;9.27;;;7.60;;
4595;SDS011;2310;49.978;8.742;2022-09-12T20:01:23;9.70;;;8.80;;
4595;SDS011;2310;49.978;8.742;2022-09-12T20:05:27;9.47;;;8.53;;
4595;SDS011;2310;49.978;8.742;2022-09-12T20:09:29;9.47;;;8.57;;
4595;SDS011;2310;49.978;8.742;2022-09-12T20:13:30;9.70;;;8.70;;
4595;SDS011;2310;49.978;8.742;2022-09-12T20:17:31;10.20;;;8.60;;
4595;SDS011;2310;49.978;8.742;2022-09-12T20:21:33;9.63;;;8.37;;
4595;SDS011;2310;49.978;8.742;2022-09-12T20:25:36;8.40;;;7.60;;
4595;SDS011;2310;49.978;8.742;2022-09-12T20:29:37;8.97;;;8.07;;
4595;SDS011;2310;49.978;8.742;2022-09-12T20:33:39;9.00;;;8.20;;
4595;SDS011;2310;49.978;8.742;2022-09-12T20:37:40;8.37;;;7.57;;
4595;SDS011;2310;49.978;8.742;2022-09-12T20:41:41;9.80;;;8.40;;
4595;SDS011;2310;49.978;8.742;2022-09-12T20:45:43;8.33;;;7.63;;
4595;SDS011;2310;49.978;8.742;2022-09-12T20:49:44;9.10;;;8.23;;
4595;SDS011;2310;49.978;8.742;2022-09-12T20:53:45;9.87;;;8.40;;
4595;SDS011;2310;49.978;8.742;2022-09-12T20:57:48;9.60;;;8.60;;
4595;SDS011;2310;49.978;8.742;2022-09-12T21:01:50;10.30;;;9.03;;
4595;SDS011;2310;49.978;8.742;2022-09-12T21:05:52;9.93;;;8.30;;
4595;SDS011;2310;49.978;8.742;2022-09-12T21:09:53;7.83;;;7.13;;
4595;SDS011;2310;49.978;8.742;2022-09-12T21:13:55;8.60;;;7.60;;
4595;SDS011;2310;49.978;8.742;2022-09-12T21:17:56;10.23;;;8.00;;
4595;SDS011;2310;49.978;8.742;2022-09-12T21:21:58;8.20;;;7.40;;
4595;SDS011;2310;49.978;8.742;2022-09-12T21:25:59;7.83;;;6.67;;
4595;SDS011;2310;49.978;8.742;2022-09-12T21:30:01;7.90;;;7.17;;
4595;SDS011;2310;49.978;8.742;2022-09-12T21:34:05;7.80;;;6.80;;
4595;SDS011;2310;49.978;8.742;2022-09-12T21:38:06;11.03;;;7.50;;
4595;SDS011;2310;49.978;8.742;2022-09-12T21:42:08;8.97;;;8.07;;
4595;SDS011;2310;49.978;8.742;2022-09-12T21:46:10;7.37;;;6.67;;
4595;SDS011;2310;49.978;8.742;2022-09-12T21:50:11;9.20;;;7.13;;
4595;SDS011;2310;49.978;8.742;2022-09-12T21:54:13;8.13;;;7.33;;
4595;SDS011;2310;49.978;8.742;2022-09-12T21:58:14;8.50;;;7.00;;
4595;SDS011;2310;49.978;8.742;2022-09-12T22:02:16;7.60;;;6.90;;
4595;SDS011;2310;49.978;8.742;2022-09-12T22:06:17;7.70;;;7.00;;
4595;SDS011;2310;49.978;8.742;2022-09-12T22:10:20;8.27;;;7.47;;
4595;SDS011;2310;49.978;8.742;2022-09-12T22:14:21;7.53;;;6.60;;
4595;SDS011;2310;49.978;8.742;2022-09-12T22:18:23;7.77;;;6.90;;
4595;SDS011;2310;49.978;8.742;2022-09-12T22:22:24;8.70;;;7.20;;
4595;SDS011;2310;49.978;8.742;2022-09-12T22:26:28;8.00;;;7.20;;
4595;SDS011;2310;49.978;8.742;2022-09-12T22:30:31;7.30;;;6.57;;
4595;SDS011;2310;49.978;8.742;2022-09-12T22:34:33;7.70;;;6.90;;
4595;SDS011;2310;49.978;8.742;2022-09-12T22:38:35;8.43;;;7.00;;
4595;SDS011;2310;49.978;8.742;2022-09-12T22:42:36;7.17;;;6.47;;
4595;SDS011;2310;49.978;8.742;2022-09-12T22:46:38;8.43;;;6.80;;
4595;SDS011;2310;49.978;8.742;2022-09-12T22:50:40;8.63;;;7.93;;
4595;SDS011;2310;49.978;8.742;2022-09-12T22:54:41;8.07;;;7.20;;
4595;SDS011;2310;49.978;8.742;2022-09-12T22:58:43;7.87;;;6.33;;
4595;SDS011;2310;49.978;8.742;2022-09-12T23:02:44;7.93;;;6.70;;
4595;SDS011;2310;49.978;8.742;2022-09-12T23:06:46;8.73;;;6.93;;
4595;SDS011;2310;49.978;8.742;2022-09-12T23:10:48;6.97;;;6.33;;
4595;SDS011;2310;49.978;8.742;2022-09-12T23:14:50;9.43;;;6.80;;
4595;SDS011;2310;49.978;8.742;2022-09-12T23:18:51;9.73;;;7.37;;
4595;SDS011;2310;49.978;8.742;2022-09-12T23:22:52;7.80;;;7.00;;
4595;SDS011;2310;49.978;8.742;2022-09-12T23:26:54;12.20;;;7.70;;
4595;SDS011;2310;49.978;8.742;2022-09-12T23:30:55;8.03;;;7.23;;
4595;SDS011;2310;49.978;8.742;2022-09-12T23:34:57;7.67;;;6.20;;
4595;SDS011;2310;49.978;8.742;2022-09-12T23:38:58;8.20;;;7.37;;
4595;SDS011;2310;49.978;8.742;2022-09-12T23:43:00;8.07;;;6.87;;
4595;SDS011;2310;49.978;8.742;2022-09-12T23:47:01;9.23;;;7.00;;
4595;SDS011;2310;49.978;8.742;2022-09-12T23:51:03;8.23;;;7.40;;
4595;SDS011;2310;49.978;8.742;2022-09-12T23:55:04;8.23;;;6.97;;
4595;SDS011;2310;49.978;8.742;2022-09-12T23:59:07;8.10;;;6.43;;
